Time;durP1;ratioP1;P1;durP2;ratioP2;P2;SDS_P1;SDS_P2;PMS_P1;PMS_P2;Temp;Humidity;BMP_temperature;BMP_pressure;BME280_temperature;BME280_humidity;BME280_pressure;Samples;Min_cycle;Max_cycle;Signal;HPM_P1;HPM_P2
2023/03/13 00:00:26;;;;;;;1.00;0.80;;;;;;;22.17;35.59;99272.24;1847908;76;28440;-60
2023/03/13 00:03:14;;;;;;;0.50;0.50;;;;;;;22.20;35.58;99263.53;1846463;76;28151;-63
2023/03/13 00:06:02;;;;;;;0.50;0.50;;;;;;;22.19;35.58;99279.67;1850687;76;28251;-60
2023/03/13 00:08:50;;;;;;;0.60;0.60;;;;;;;22.19;35.64;99271.47;1845363;76;32193;-60
2023/03/13 00:11:39;;;;;;;0.60;0.60;;;;;;;22.21;35.59;99271.53;1853191;76;28239;-58
2023/03/13 00:14:28;;;;;;;0.50;0.40;;;;;;;22.20;35.59;99263.01;1854910;76;28282;-59
2023/03/13 00:17:16;;;;;;;0.37;0.37;;;;;;;22.21;35.64;99259.22;1854777;76;28163;-59
2023/03/13 00:20:06;;;;;;;0.60;0.60;;;;;;;22.22;35.67;99265.53;1852982;76;38462;-59
2023/03/13 00:22:54;;;;;;;0.43;0.43;;;;;;;22.21;35.70;99263.84;1857843;76;28215;-56
2023/03/13 00:25:43;;;;;;;0.40;0.40;;;;;;;22.22;35.66;99258.69;1847729;76;28227;-59
2023/03/13 00:28:33;;;;;;;0.40;0.40;;;;;;;22.25;35.63;99265.88;1854154;76;28328;-60
2023/03/13 00:31:28;;;;;;;0.47;0.47;;;;;;;22.23;35.66;99260.34;1864649;76;28228;-59
2023/03/13 00:34:16;;;;;;;0.45;0.45;;;;;;;22.23;35.69;99263.08;1857261;76;28158;-58
2023/03/13 00:37:04;;;;;;;0.62;0.62;;;;;;;22.21;35.72;99258.38;1858085;76;28201;-58
2023/03/13 00:39:53;;;;;;;0.50;0.50;;;;;;;22.24;35.68;99257.91;1859041;76;28152;-60
2023/03/13 00:42:41;;;;;;;0.50;0.40;;;;;;;22.23;35.71;99253.50;1855754;76;28224;-61
2023/03/13 00:45:30;;;;;;;0.60;0.50;;;;;;;22.24;35.69;99260.09;1867714;76;28194;-61
2023/03/13 00:48:20;;;;;;;0.42;0.42;;;;;;;22.24;35.67;99252.44;1844534;76;28200;-60
2023/03/13 00:51:10;;;;;;;0.37;0.37;;;;;;;22.23;35.69;99252.13;1854405;76;28829;-60
2023/03/13 00:54:00;;;;;;;0.70;0.70;;;;;;;22.12;36.02;99251.59;1854178;76;28207;-59
2023/03/13 00:56:48;;;;;;;0.45;0.45;;;;;;;22.07;36.30;99249.58;1850906;76;28387;-61
2023/03/13 00:59:37;;;;;;;0.57;0.57;;;;;;;22.03;36.40;99255.23;1868589;76;38426;-60
2023/03/13 01:02:25;;;;;;;0.40;0.40;;;;;;;22.03;36.48;99253.02;1837545;76;28256;-61
2023/03/13 01:05:14;;;;;;;0.40;0.40;;;;;;;22.02;36.59;99253.55;1867396;76;28189;-59
2023/03/13 01:08:02;;;;;;;0.40;0.40;;;;;;;22.02;36.54;99257.66;1867952;76;28632;-59
2023/03/13 01:10:53;;;;;;;0.90;0.40;;;;;;;22.01;36.62;99255.45;1853970;76;28204;-57
2023/03/13 01:13:42;;;;;;;0.60;0.55;;;;;;;21.96;36.64;99243.01;1843659;76;28278;-58
2023/03/13 01:16:34;;;;;;;0.40;0.40;;;;;;;21.91;36.73;99240.14;1834515;77;28298;-59
2023/03/13 01:19:22;;;;;;;0.53;0.47;;;;;;;21.88;36.81;99242.01;1863675;76;28215;-61
2023/03/13 01:22:11;;;;;;;0.50;0.50;;;;;;;21.86;36.77;99241.41;1837854;77;28115;-55
2023/03/13 01:25:00;;;;;;;0.50;0.50;;;;;;;21.86;36.84;99242.78;1845843;77;28209;-58
2023/03/13 01:27:48;;;;;;;0.60;0.60;;;;;;;21.84;36.85;99235.32;1849987;77;28225;-57
2023/03/13 01:30:37;;;;;;;0.90;0.40;;;;;;;21.81;36.89;99241.25;1848551;77;28194;-57
2023/03/13 01:33:25;;;;;;;0.70;0.70;;;;;;;21.84;36.90;99249.55;1849872;77;28174;-57
2023/03/13 01:36:15;;;;;;;0.50;0.50;;;;;;;21.84;36.89;99248.19;1833775;77;28204;-57
2023/03/13 01:39:04;;;;;;;0.50;0.50;;;;;;;21.85;36.88;99243.84;1845063;77;28178;-59
2023/03/13 01:41:53;;;;;;;0.40;0.40;;;;;;;21.85;36.87;99244.36;1841718;76;28227;-60
2023/03/13 01:44:56;;;;;;;0.40;0.40;;;;;;;21.85;36.88;99239.73;1849205;76;28434;-59
2023/03/13 01:47:46;;;;;;;0.62;0.60;;;;;;;21.86;36.86;99230.48;1855117;76;28207;-60
2023/03/13 01:50:36;;;;;;;0.60;0.50;;;;;;;21.84;36.90;99226.31;1850042;76;28223;-59
2023/03/13 01:53:28;;;;;;;0.60;0.60;;;;;;;21.85;36.88;99231.53;1851366;76;28063;-59
2023/03/13 01:56:26;;;;;;;0.43;0.43;;;;;;;21.86;36.89;99225.53;1834365;76;28273;-58
2023/03/13 01:59:18;;;;;;;0.50;0.50;;;;;;;21.85;36.90;99221.13;1868653;74;28220;-59
2023/03/13 02:02:07;;;;;;;0.60;0.60;;;;;;;21.86;36.90;99219.54;1839014;77;28304;-58
2023/03/13 02:04:59;;;;;;;0.43;0.43;;;;;;;21.86;36.89;99225.53;1845273;77;28204;-57
2023/03/13 02:07:59;;;;;;;0.45;0.45;;;;;;;21.88;36.85;99227.50;1827211;77;28184;-57
2023/03/13 02:10:57;;;;;;;0.70;0.40;;;;;;;21.87;36.89;99228.02;1856195;76;28739;-55
2023/03/13 02:13:48;;;;;;;0.60;0.60;;;;;;;21.86;36.95;99222.80;1847555;76;28173;-57
2023/03/13 02:16:37;;;;;;;0.30;0.30;;;;;;;21.84;36.94;99219.48;1860303;76;28211;-57
2023/03/13 02:19:35;;;;;;;0.60;0.60;;;;;;;21.84;36.94;99210.71;1860054;76;28287;-57
2023/03/13 02:22:41;;;;;;;0.40;0.40;;;;;;;21.85;36.95;99215.13;1860946;76;28224;-57
2023/03/13 02:25:33;;;;;;;0.43;0.43;;;;;;;21.87;36.96;99217.61;1861314;76;28213;-56
2023/03/13 02:28:25;;;;;;;0.50;0.50;;;;;;;21.81;36.98;99212.55;1832983;76;28285;-59
2023/03/13 02:31:13;;;;;;;0.60;0.60;;;;;;;21.86;37.01;99219.54;1845934;76;28122;-58
2023/03/13 02:34:03;;;;;;;0.40;0.40;;;;;;;21.88;36.98;99220.13;1844677;76;28346;-57
2023/03/13 02:36:52;;;;;;;0.60;0.60;;;;;;;21.89;36.99;99214.13;1852303;76;28213;-57
2023/03/13 02:39:44;;;;;;;0.53;0.53;;;;;;;21.92;36.97;99209.02;1850795;76;28354;-58
2023/03/13 02:42:34;;;;;;;0.40;0.40;;;;;;;21.96;36.93;99205.28;1851481;76;28225;-56
2023/03/13 02:45:23;;;;;;;0.50;0.50;;;;;;;21.98;36.89;99197.11;1832315;76;28252;-58
2023/03/13 02:48:12;;;;;;;0.62;0.50;;;;;;;21.97;36.94;99192.73;1850868;76;28247;-55
2023/03/13 02:51:03;;;;;;;0.40;0.40;;;;;;;21.99;36.92;99194.69;1846189;76;28215;-59
2023/03/13 02:53:55;;;;;;;0.47;0.47;;;;;;;22.00;36.92;99186.79;1854287;76;28170;-56
2023/03/13 02:56:47;;;;;;;0.53;0.50;;;;;;;22.00;36.90;99186.79;1845177;76;28129;-56
2023/03/13 02:59:36;;;;;;;0.40;0.40;;;;;;;22.01;36.91;99179.39;1858545;76;28177;-58
2023/03/13 03:02:25;;;;;;;0.42;0.42;;;;;;;22.03;36.93;99179.45;1863615;76;28163;-57
2023/03/13 03:05:15;;;;;;;0.40;0.40;;;;;;;22.04;36.93;99174.82;1862457;76;28056;-58
2023/03/13 03:08:04;;;;;;;0.60;0.60;;;;;;;22.01;36.91;99167.92;1825672;76;28153;-57
2023/03/13 03:10:52;;;;;;;0.53;0.53;;;;;;;22.03;36.94;99176.72;1849496;76;28193;-57
2023/03/13 03:13:42;;;;;;;0.60;0.60;;;;;;;22.03;36.96;99176.72;1830563;77;28295;-58
2023/03/13 03:16:31;;;;;;;0.60;0.60;;;;;;;22.07;36.91;99174.36;1836424;76;28290;-57
2023/03/13 03:19:19;;;;;;;0.45;0.45;;;;;;;22.07;36.93;99174.88;1824129;78;28287;-56
2023/03/13 03:22:08;;;;;;;0.60;0.60;;;;;;;22.08;36.91;99166.43;1846491;76;28133;-56
2023/03/13 03:24:56;;;;;;;0.50;0.50;;;;;;;22.13;36.89;99174.75;1835648;76;28222;-55
2023/03/13 03:27:45;;;;;;;0.50;0.50;;;;;;;22.14;36.89;99178.33;1849539;77;28273;-59
2023/03/13 03:30:34;;;;;;;0.50;0.50;;;;;;;22.15;36.88;99180.01;1842668;77;28215;-58
2023/03/13 03:33:23;;;;;;;0.40;0.40;;;;;;;22.15;36.94;99184.11;1842614;76;27876;-55
2023/03/13 03:36:18;;;;;;;0.50;0.50;;;;;;;22.15;36.89;99182.74;1824401;77;28305;-59
2023/03/13 03:39:06;;;;;;;0.35;0.35;;;;;;;22.16;36.93;99187.96;1816868;77;28468;-59
2023/03/13 03:41:55;;;;;;;0.80;0.50;;;;;;;22.18;36.88;99185.81;1835015;77;28284;-56
2023/03/13 03:44:44;;;;;;;0.30;0.30;;;;;;;22.21;36.88;99181.25;1843494;76;28377;-58
2023/03/13 03:47:33;;;;;;;1.90;0.60;;;;;;;22.19;36.86;99168.88;1842824;77;28273;-56
2023/03/13 03:50:22;;;;;;;0.33;0.33;;;;;;;22.19;36.89;99168.34;1842762;75;28231;-58
2023/03/13 03:53:12;;;;;;;0.40;0.40;;;;;;;22.23;36.89;99179.63;1843135;76;28262;-56
2023/03/13 03:56:02;;;;;;;0.50;0.50;;;;;;;22.24;36.88;99180.74;1815150;75;28322;-56
2023/03/13 03:58:51;;;;;;;1.60;0.67;;;;;;;22.27;36.84;99169.86;1829561;76;28180;-57
2023/03/13 04:01:47;;;;;;;0.40;0.40;;;;;;;22.28;36.87;99171.53;1846530;76;28258;-59
2023/03/13 04:04:38;;;;;;;0.60;0.60;;;;;;;22.29;36.83;99167.70;1857131;76;28363;-58
2023/03/13 04:07:28;;;;;;;0.40;0.40;;;;;;;22.31;36.82;99165.59;1842777;77;28336;-57
2023/03/13 04:10:17;;;;;;;0.60;0.60;;;;;;;22.32;36.83;99176.81;1855367;76;28270;-55
2023/03/13 04:13:06;;;;;;;0.40;0.40;;;;;;;22.34;36.83;99171.92;1843002;77;32267;-57
2023/03/13 04:15:55;;;;;;;0.40;0.40;;;;;;;22.35;36.82;99168.13;1833016;76;28251;-59
2023/03/13 04:18:43;;;;;;;0.40;0.40;;;;;;;22.40;36.78;99164.14;1826838;77;28288;-55
2023/03/13 04:21:33;;;;;;;0.98;0.62;;;;;;;22.41;36.77;99163.05;1842192;77;28195;-55
2023/03/13 04:24:26;;;;;;;0.40;0.40;;;;;;;22.42;36.76;99166.94;1851147;75;28247;-58
2023/03/13 04:27:16;;;;;;;0.40;0.40;;;;;;;22.40;36.75;99162.77;1860400;76;28666;-58
2023/03/13 04:30:08;;;;;;;0.50;0.50;;;;;;;22.44;36.75;99168.05;1860630;76;28709;-56
2023/03/13 04:33:14;;;;;;;0.30;0.30;;;;;;;22.47;36.74;99159.37;1835901;76;28211;-59
2023/03/13 04:36:04;;;;;;;1.55;0.50;;;;;;;22.46;36.73;99150.84;1858610;76;28186;-57
2023/03/13 04:39:07;;;;;;;0.40;0.40;;;;;;;22.46;36.73;99155.80;1856681;76;28152;-58
2023/03/13 04:42:00;;;;;;;0.30;0.30;;;;;;;22.48;36.76;99154.17;1857222;76;28363;-55
2023/03/13 04:44:50;;;;;;;0.55;0.55;;;;;;;22.53;36.73;99146.91;1849992;76;28188;-57
2023/03/13 04:47:56;;;;;;;0.50;0.50;;;;;;;22.54;36.70;99154.59;1820020;76;28305;-58
2023/03/13 04:51:05;;;;;;;0.45;0.45;;;;;;;22.52;36.71;99147.97;1791598;78;28512;-55
2023/03/13 04:54:05;;;;;;;0.42;0.42;;;;;;;22.54;36.71;99149.92;1775163;78;28370;-57
2023/03/13 04:56:58;;;;;;;0.30;0.30;;;;;;;22.56;36.71;99154.64;1788422;76;28145;-56
2023/03/13 04:59:51;;;;;;;0.50;0.50;;;;;;;22.57;36.70;99143.97;1855167;76;28155;-56
2023/03/13 05:02:44;;;;;;;0.33;0.33;;;;;;;22.61;36.63;99145.17;1819124;78;28263;-59
2023/03/13 05:05:35;;;;;;;0.45;0.45;;;;;;;22.63;36.60;99148.52;1859185;76;38586;-59
2023/03/13 05:08:41;;;;;;;0.40;0.40;;;;;;;22.66;36.57;99151.31;1853072;76;28241;-57
2023/03/13 05:11:31;;;;;;;0.50;0.50;;;;;;;22.68;36.53;99149.16;1775232;76;28216;-57
2023/03/13 05:14:30;;;;;;;0.47;0.47;;;;;;;22.71;36.52;99136.89;1830167;76;28188;-58
2023/03/13 05:17:27;;;;;;;0.33;0.33;;;;;;;22.72;36.53;99135.80;1819206;76;28129;-58
2023/03/13 05:20:17;;;;;;;0.40;0.40;;;;;;;22.72;36.44;99131.69;1821825;76;28214;-58
2023/03/13 05:23:07;;;;;;;0.50;0.50;;;;;;;22.74;36.45;99129.01;1775517;79;28384;-57
2023/03/13 05:25:57;;;;;;;0.50;0.50;;;;;;;22.75;36.49;99119.73;1851878;76;28219;-57
2023/03/13 05:28:56;;;;;;;0.60;0.60;;;;;;;22.77;36.45;99110.73;1840367;76;28311;-58
2023/03/13 05:31:52;;;;;;;0.60;0.60;;;;;;;22.78;36.46;99115.67;1839604;76;28193;-57
2023/03/13 05:34:58;;;;;;;0.53;0.53;;;;;;;22.80;36.48;99115.70;1838703;76;28177;-58
2023/03/13 05:37:51;;;;;;;0.60;0.60;;;;;;;22.81;36.54;99099.57;1836506;76;28260;-56
2023/03/13 05:40:49;;;;;;;0.40;0.40;;;;;;;22.86;36.54;99100.20;1855207;76;28067;-55
2023/03/13 05:43:56;;;;;;;0.50;0.50;;;;;;;22.86;36.55;99105.15;1857345;76;28184;-56
2023/03/13 05:47:01;;;;;;;1.42;0.60;;;;;;;22.88;36.53;99100.25;1776164;80;32388;-53
2023/03/13 05:49:54;;;;;;;0.40;0.40;;;;;;;22.90;36.47;99103.57;1822117;76;28426;-55
2023/03/13 05:53:00;;;;;;;0.50;0.50;;;;;;;22.95;36.50;99094.61;1835155;76;28316;-54
2023/03/13 05:55:50;;;;;;;0.37;0.37;;;;;;;22.96;36.48;99095.76;1833343;77;28212;-56
2023/03/13 05:58:42;;;;;;;0.43;0.43;;;;;;;22.94;36.51;99104.73;1846479;76;28255;-53
2023/03/13 06:01:50;;;;;;;0.60;0.60;;;;;;;22.95;36.51;99099.56;1852338;76;28213;-55
2023/03/13 06:04:40;;;;;;;0.50;0.50;;;;;;;22.97;36.52;99094.66;1858574;76;28120;-56
2023/03/13 06:07:29;;;;;;;0.50;0.50;;;;;;;23.02;36.42;99072.84;1795716;79;28380;-57
2023/03/13 06:10:18;;;;;;;0.60;0.60;;;;;;;23.03;36.51;99070.94;1853761;76;28133;-55
2023/03/13 06:13:07;;;;;;;1.00;0.60;;;;;;;23.09;36.40;99076.25;1848440;76;28227;-52
2023/03/13 06:15:58;;;;;;;0.30;0.30;;;;;;;23.11;36.40;99080.11;1853583;76;28201;-53
2023/03/13 06:18:53;;;;;;;0.33;0.33;;;;;;;23.12;36.39;99086.73;1858169;76;28238;-55
2023/03/13 06:21:42;;;;;;;0.42;0.42;;;;;;;23.13;36.34;99082.89;1842043;76;28254;-54
2023/03/13 06:24:31;;;;;;;0.40;0.40;;;;;;;23.16;36.33;99084.30;1847104;76;28179;-54
2023/03/13 06:27:20;;;;;;;0.50;0.50;;;;;;;23.16;36.32;99072.81;1835251;76;28278;-57
2023/03/13 06:30:11;;;;;;;0.55;0.55;;;;;;;23.17;36.27;99066.27;1859645;76;28114;-53
2023/03/13 06:32:59;;;;;;;0.60;0.60;;;;;;;23.20;36.28;99067.66;1831949;77;28415;-55
2023/03/13 06:35:47;;;;;;;0.40;0.40;;;;;;;23.23;36.30;99070.74;1841021;76;28211;-55
2023/03/13 06:38:35;;;;;;;0.50;0.50;;;;;;;23.26;36.25;99069.42;1839034;76;28321;-55
2023/03/13 06:41:24;;;;;;;0.37;0.37;;;;;;;23.29;36.16;99060.14;1851393;76;28791;-53
2023/03/13 06:44:12;;;;;;;0.50;0.40;;;;;;;23.35;36.13;99066.58;1842001;76;28219;-54
2023/03/13 06:47:00;;;;;;;0.50;0.50;;;;;;;23.35;36.10;99068.78;1832219;77;28154;-53
2023/03/13 06:49:49;;;;;;;0.70;0.40;;;;;;;23.36;36.13;99067.69;1790789;79;28430;-56
2023/03/13 06:52:37;;;;;;;0.47;0.47;;;;;;;23.39;36.08;99063.62;1846175;76;28164;-54
2023/03/13 06:55:26;;;;;;;0.55;0.55;;;;;;;23.39;36.11;99056.77;1855672;76;28246;-55
2023/03/13 06:58:15;;;;;;;1.40;0.50;;;;;;;23.41;36.05;99057.91;1841839;76;28192;-57
2023/03/13 07:01:09;;;;;;;0.40;0.40;;;;;;;23.42;36.02;99057.64;1855591;76;28255;-56
2023/03/13 07:03:57;;;;;;;0.53;0.53;;;;;;;23.43;36.08;99061.22;1851027;76;28251;-57
2023/03/13 07:06:45;;;;;;;0.47;0.47;;;;;;;23.42;36.10;99060.92;1837964;76;28238;-55
2023/03/13 07:09:33;;;;;;;0.50;0.50;;;;;;;23.40;36.14;99054.33;1831332;76;28329;-57
2023/03/13 07:12:21;;;;;;;0.40;0.40;;;;;;;23.43;36.13;99042.88;1839585;76;28253;-58
2023/03/13 07:15:11;;;;;;;0.55;0.55;;;;;;;23.45;36.11;99031.11;1824472;76;28146;-53
2023/03/13 07:17:59;;;;;;;0.40;0.40;;;;;;;23.46;36.14;99031.92;1854854;76;28113;-53
2023/03/13 07:20:53;;;;;;;0.40;0.40;;;;;;;23.49;36.10;99047.87;1852269;76;28255;-55
2023/03/13 07:23:42;;;;;;;0.40;0.40;;;;;;;23.52;36.06;99064.67;1843933;76;28248;-55
2023/03/13 07:26:30;;;;;;;0.50;0.50;;;;;;;23.52;36.11;99052.86;1854535;76;28670;-54
2023/03/13 07:29:19;;;;;;;0.55;0.55;;;;;;;23.54;36.04;99046.58;1843233;77;28426;-56
2023/03/13 07:32:08;;;;;;;0.30;0.30;;;;;;;23.55;36.04;99034.55;1845527;77;28297;-54
2023/03/13 07:34:56;;;;;;;0.42;0.42;;;;;;;23.53;36.06;99039.42;1840995;77;28290;-55
2023/03/13 07:37:44;;;;;;;0.50;0.50;;;;;;;23.56;36.07;99043.88;1833914;77;28271;-52
2023/03/13 07:40:33;;;;;;;0.30;0.30;;;;;;;23.59;36.05;99043.92;1841282;77;28315;-57
2023/03/13 07:43:22;;;;;;;0.50;0.30;;;;;;;23.58;36.02;99041.72;1832554;77;28313;-55
2023/03/13 07:46:13;;;;;;;0.37;0.37;;;;;;;23.58;36.06;99048.57;1820332;77;28137;-55
2023/03/13 07:49:01;;;;;;;0.57;0.57;;;;;;;23.59;36.07;99048.03;1864106;75;28262;-56
2023/03/13 07:51:50;;;;;;;0.42;0.42;;;;;;;23.60;36.08;99049.68;1843053;77;32218;-54
2023/03/13 07:54:38;;;;;;;0.78;0.55;;;;;;;23.61;36.10;99036.27;1840988;77;28215;-55
2023/03/13 07:57:27;;;;;;;0.47;0.47;;;;;;;23.61;36.07;99032.16;1843018;75;28303;-57
2023/03/13 08:00:17;;;;;;;0.50;0.50;;;;;;;23.63;36.11;99023.13;1842754;77;28409;-57
2023/03/13 08:03:05;;;;;;;0.53;0.53;;;;;;;23.66;36.03;99015.25;1819699;75;28269;-59
2023/03/13 08:06:02;;;;;;;0.50;0.50;;;;;;;23.67;36.00;99019.63;1840666;77;28730;-55
2023/03/13 08:08:52;;;;;;;0.68;0.57;;;;;;;23.72;36.01;99013.39;1834599;77;28351;-53
2023/03/13 08:11:43;;;;;;;0.53;0.53;;;;;;;23.69;35.84;99030.34;1819248;77;28308;-55
2023/03/13 08:14:31;;;;;;;0.62;0.62;;;;;;;23.72;35.51;99014.22;1834547;77;28339;-58
2023/03/13 08:17:19;;;;;;;0.80;0.47;;;;;;;23.73;35.35;99006.30;1810391;77;28400;-56
2023/03/13 08:20:09;;;;;;;0.40;0.40;;;;;;;23.76;35.28;99000.81;1832758;77;28214;-54
2023/03/13 08:22:58;;;;;;;0.70;0.50;;;;;;;23.78;35.24;98992.63;1825844;77;27865;-52
2023/03/13 08:25:46;;;;;;;1.70;0.47;;;;;;;23.79;35.22;98987.44;1844815;77;28258;-52
2023/03/13 08:28:35;;;;;;;0.40;0.40;;;;;;;23.81;35.21;98987.17;1836925;75;28327;-55
2023/03/13 08:31:27;;;;;;;0.50;0.50;;;;;;;23.79;35.24;98980.59;1818353;76;28424;-56
2023/03/13 08:34:17;;;;;;;0.50;0.50;;;;;;;23.80;35.26;98982.79;1835537;77;28587;-56
2023/03/13 08:37:06;;;;;;;0.62;0.62;;;;;;;23.80;35.25;98988.28;1847988;75;28363;-56
2023/03/13 08:39:55;;;;;;;0.40;0.40;;;;;;;23.80;35.27;98973.19;1830307;78;28751;-55
2023/03/13 08:42:44;;;;;;;0.50;0.50;;;;;;;23.78;35.28;98964.39;1826312;77;28214;-55
2023/03/13 08:45:32;;;;;;;0.50;0.50;;;;;;;23.80;35.29;98970.45;1843980;75;28249;-56
2023/03/13 08:48:21;;;;;;;0.55;0.55;;;;;;;23.82;35.28;98969.11;1844035;75;28234;-55
2023/03/13 08:51:12;;;;;;;0.50;0.50;;;;;;;23.84;35.27;98949.11;1818207;78;28287;-55
2023/03/13 08:54:02;;;;;;;0.50;0.50;;;;;;;23.84;35.27;98937.30;1830395;78;28372;-56
2023/03/13 08:56:50;;;;;;;0.40;0.40;;;;;;;23.84;35.27;98945.53;1840453;77;27801;-57
2023/03/13 08:59:39;;;;;;;0.47;0.47;;;;;;;23.84;35.35;98912.62;1840423;77;28288;-53
2023/03/13 09:02:27;;;;;;;0.47;0.47;;;;;;;23.85;35.40;98905.49;1841698;77;28376;-57
2023/03/13 09:05:16;;;;;;;0.60;0.42;;;;;;;23.87;35.35;98903.34;1829609;76;28273;-54
2023/03/13 09:08:04;;;;;;;1.20;0.60;;;;;;;23.88;35.44;98895.92;1844186;75;28315;-57
2023/03/13 09:11:04;;;;;;;0.40;0.40;;;;;;;23.87;35.42;98888.27;1827233;76;28308;-57
2023/03/13 09:13:55;;;;;;;0.50;0.50;;;;;;;23.83;35.39;98868.44;1844369;76;28134;-55
2023/03/13 09:16:45;;;;;;;0.30;0.30;;;;;;;23.88;35.38;98872.61;1844747;75;28085;-54
2023/03/13 09:19:33;;;;;;;0.50;0.50;;;;;;;23.89;35.38;98874.28;1846468;75;28311;-56
2023/03/13 09:22:21;;;;;;;1.20;0.42;;;;;;;23.91;35.38;98871.56;1833100;76;28306;-55
2023/03/13 09:25:11;;;;;;;0.40;0.40;;;;;;;23.89;35.38;98845.48;1843695;76;28230;-53
2023/03/13 09:27:59;;;;;;;0.37;0.37;;;;;;;23.90;35.39;98830.66;1834661;76;28298;-55
2023/03/13 09:30:48;;;;;;;0.57;0.57;;;;;;;23.93;35.39;98832.89;1794256;78;28371;-53
2023/03/13 09:33:38;;;;;;;0.40;0.40;;;;;;;23.92;35.37;98821.08;1813757;77;28317;-56
2023/03/13 09:36:28;;;;;;;0.40;0.40;;;;;;;23.92;35.40;98818.34;1858601;76;28203;-56
2023/03/13 09:39:17;;;;;;;0.45;0.45;;;;;;;23.85;35.46;98808.69;1855465;76;28173;-56
2023/03/13 09:42:14;;;;;;;0.80;0.40;;;;;;;23.59;35.95;98819.09;1846009;76;28192;-57
2023/03/13 09:45:11;;;;;;;0.40;0.40;;;;;;;23.47;36.25;98810.19;1852661;76;28174;-58
2023/03/13 09:48:02;;;;;;;0.33;0.33;;;;;;;23.38;36.49;98821.59;1854795;76;28377;-54
2023/03/13 09:51:03;;;;;;;0.40;0.40;;;;;;;23.34;36.67;98808.12;1861739;76;28262;-56
2023/03/13 09:53:57;;;;;;;0.53;0.40;;;;;;;23.32;36.85;98781.48;1850774;76;33015;-57
2023/03/13 09:56:57;;;;;;;1.00;0.50;;;;;;;23.30;36.89;98794.62;1855040;76;28813;-57
2023/03/13 09:59:50;;;;;;;0.42;0.40;;;;;;;23.27;37.01;98784.70;1853440;76;28240;-57
2023/03/13 10:02:40;;;;;;;0.90;0.30;;;;;;;23.29;37.06;98779.24;1855909;76;28200;-56
2023/03/13 10:05:30;;;;;;;0.53;0.53;;;;;;;23.32;37.12;98779.27;1834461;76;31104;-54
2023/03/13 10:08:21;;;;;;;0.55;0.55;;;;;;;23.56;36.80;98760.66;1841244;76;28252;-56
2023/03/13 10:11:13;;;;;;;0.50;0.40;;;;;;;23.75;36.46;98747.70;1845275;76;28384;-55
2023/03/13 10:14:07;;;;;;;0.37;0.37;;;;;;;23.86;36.18;98728.05;1849505;76;28300;-55
2023/03/13 10:16:58;;;;;;;0.40;0.40;;;;;;;23.93;36.05;98727.28;1844974;76;28262;-54
2023/03/13 10:19:50;;;;;;;0.40;0.40;;;;;;;24.00;35.90;98726.52;1853679;76;28307;-56
2023/03/13 10:22:39;;;;;;;0.40;0.40;;;;;;;24.05;35.82;98722.45;1835590;76;28689;-51
2023/03/13 10:25:42;;;;;;;0.30;0.30;;;;;;;24.08;35.74;98713.73;1856847;76;28141;-54
2023/03/13 10:28:26;;;;;;;0.40;0.40;;;;;;;24.10;35.76;98721.16;1853827;76;28326;-55
2023/03/13 10:31:18;;;;;;;0.85;0.60;;;;;;;24.08;35.74;98698.64;1856832;76;28249;-53
2023/03/13 10:34:14;;;;;;;0.40;0.40;;;;;;;24.14;35.66;98696.20;1841406;76;28335;-57
2023/03/13 10:37:02;;;;;;;0.42;0.42;;;;;;;24.14;35.62;98693.45;1842816;76;28575;-57
2023/03/13 10:39:52;;;;;;;0.50;0.50;;;;;;;24.14;35.69;98695.38;1848521;76;28126;-55
2023/03/13 10:42:44;;;;;;;0.60;0.60;;;;;;;24.16;35.67;98690.44;1843758;76;28255;-53
2023/03/13 10:45:35;;;;;;;0.30;0.30;;;;;;;24.17;35.63;98686.62;1855990;76;28193;-55
2023/03/13 10:48:27;;;;;;;0.70;0.50;;;;;;;24.18;35.60;98683.59;1842807;76;28219;-56
2023/03/13 10:51:24;;;;;;;0.40;0.40;;;;;;;24.15;35.62;98670.43;1856300;76;28290;-51
2023/03/13 10:54:24;;;;;;;1.00;0.50;;;;;;;24.20;35.61;98666.89;1851152;76;28185;-56
2023/03/13 10:57:24;;;;;;;0.50;0.50;;;;;;;24.19;35.59;98652.34;1845514;76;28232;-53
2023/03/13 11:00:37;;;;;;;1.00;0.30;;;;;;;24.21;35.63;98656.17;1838265;76;28325;-54
2023/03/13 11:03:28;;;;;;;0.42;0.42;;;;;;;24.19;35.72;98642.73;1850762;76;36838;-55
2023/03/13 11:06:32;;;;;;;0.50;0.50;;;;;;;24.18;35.78;98638.89;1842792;76;28145;-52
2023/03/13 11:09:21;;;;;;;0.40;0.40;;;;;;;24.18;35.73;98627.34;1859459;76;28169;-56
2023/03/13 11:12:15;;;;;;;0.30;0.30;;;;;;;24.18;35.72;98633.41;1855029;76;28113;-54
2023/03/13 11:15:06;;;;;;;0.33;0.30;;;;;;;24.19;35.72;98611.71;1842413;76;28196;-55
2023/03/13 11:18:16;;;;;;;1.20;0.50;;;;;;;24.19;35.74;98606.22;1846384;76;28362;-53
2023/03/13 11:21:05;;;;;;;0.35;0.35;;;;;;;24.19;35.74;98602.11;1828523;76;28189;-54
2023/03/13 11:24:00;;;;;;;0.53;0.50;;;;;;;24.20;35.72;98599.09;1838647;76;28566;-56
2023/03/13 11:26:59;;;;;;;0.65;0.40;;;;;;;24.22;35.69;98591.44;1848514;76;28113;-55
2023/03/13 11:30:02;;;;;;;0.35;0.20;;;;;;;24.25;35.67;98585.39;1840261;76;28282;-56
2023/03/13 11:33:02;;;;;;;0.40;0.40;;;;;;;24.21;35.84;98583.45;1846653;76;28273;-56
2023/03/13 11:36:02;;;;;;;1.30;0.50;;;;;;;24.23;35.87;98580.72;1861391;76;35101;-55
2023/03/13 11:38:59;;;;;;;0.20;0.20;;;;;;;24.25;35.91;98546.97;1848761;76;28315;-55
2023/03/13 11:42:02;;;;;;;0.50;0.50;;;;;;;24.27;35.84;98550.27;1812400;75;28144;-55
2023/03/13 11:45:11;;;;;;;0.45;0.45;;;;;;;24.27;35.89;98537.92;1860169;76;28306;-55
2023/03/13 11:48:14;;;;;;;0.62;0.62;;;;;;;24.26;35.96;98534.92;1843488;75;28307;-52
2023/03/13 11:51:11;;;;;;;0.60;0.50;;;;;;;24.25;35.97;98518.16;1840181;77;28251;-56
2023/03/13 11:54:14;;;;;;;0.30;0.30;;;;;;;24.24;36.02;98504.17;1836954;76;28329;-53
2023/03/13 11:57:11;;;;;;;0.40;0.40;;;;;;;24.26;35.97;98501.16;1848744;76;28244;-52
2023/03/13 12:00:31;;;;;;;1.30;0.30;;;;;;;24.25;35.98;98498.95;1842540;77;28200;-54
2023/03/13 12:03:23;;;;;;;0.47;0.47;;;;;;;24.28;35.91;98477.83;1790934;79;28422;-54
2023/03/13 12:06:17;;;;;;;0.60;0.60;;;;;;;24.24;36.01;98467.67;1818325;77;28325;-54
2023/03/13 12:09:17;;;;;;;0.28;0.28;;;;;;;24.27;36.09;98455.59;1736038;77;28024;-56
2023/03/13 12:12:14;;;;;;;0.68;0.68;;;;;;;24.29;36.16;98438.33;1839974;77;32187;-54
2023/03/13 12:15:17;;;;;;;0.50;0.50;;;;;;;24.32;36.19;98430.10;1837104;77;28215;-54
2023/03/13 12:18:37;;;;;;;0.60;0.60;;;;;;;24.32;36.23;98413.06;1799035;78;31385;-56
2023/03/13 12:21:34;;;;;;;0.40;0.40;;;;;;;24.31;36.29;98405.11;1730061;80;28675;-54
2023/03/13 12:24:37;;;;;;;1.35;0.50;;;;;;;24.30;36.36;98383.70;1760626;80;34766;-56
2023/03/13 12:27:31;;;;;;;0.70;0.42;;;;;;;24.31;36.39;98368.89;1853346;74;28636;-54
2023/03/13 12:30:36;;;;;;;0.40;0.40;;;;;;;24.26;36.47;98348.30;1861420;75;28243;-54
2023/03/13 12:33:34;;;;;;;0.62;0.62;;;;;;;24.34;36.50;98346.37;1862841;76;28155;-56
2023/03/13 12:36:28;;;;;;;0.50;0.50;;;;;;;24.33;36.59;98336.50;1873100;76;28293;-57
2023/03/13 12:39:36;;;;;;;0.42;0.42;;;;;;;24.34;36.63;98318.13;1854286;76;28701;-58
2023/03/13 12:42:45;;;;;;;0.70;0.53;;;;;;;24.36;36.63;98315.92;1846949;76;28262;-56
2023/03/13 12:45:37;;;;;;;0.60;0.60;;;;;;;24.17;36.97;98310.16;1850284;76;28228;-57
2023/03/13 12:48:31;;;;;;;0.30;0.30;;;;;;;23.90;37.58;98302.66;1863860;76;28236;-53
2023/03/13 12:51:45;;;;;;;0.35;0.30;;;;;;;23.80;37.81;98292.52;1844622;76;28157;-62
2023/03/13 12:54:43;;;;;;;1.10;0.40;;;;;;;23.76;37.95;98277.69;1879546;76;28200;-54
2023/03/13 12:57:42;;;;;;;1.70;0.42;;;;;;;23.73;38.09;98282.91;1855620;76;28337;-54
2023/03/13 13:00:33;;;;;;;0.50;0.50;;;;;;;23.71;38.15;98265.91;1833048;76;28156;-55
2023/03/13 13:03:36;;;;;;;0.50;0.50;;;;;;;23.72;38.17;98254.66;1846063;76;28221;-56
2023/03/13 13:06:25;;;;;;;0.40;0.40;;;;;;;23.74;38.15;98245.61;1844405;76;28280;-55
2023/03/13 13:09:26;;;;;;;0.40;0.40;;;;;;;23.75;38.21;98235.47;1867283;76;28205;-56
2023/03/13 13:12:26;;;;;;;0.40;0.40;;;;;;;23.77;38.18;98226.41;1850461;76;28274;-53
2023/03/13 13:15:29;;;;;;;0.47;0.30;;;;;;;23.74;38.24;98211.88;1844126;76;28176;-53
2023/03/13 13:18:29;;;;;;;0.60;0.30;;;;;;;23.77;38.25;98203.11;1856766;76;28248;-55
2023/03/13 13:21:25;;;;;;;0.40;0.40;;;;;;;23.79;38.28;98188.58;1833800;77;28265;-54
2023/03/13 13:24:52;;;;;;;0.60;0.40;;;;;;;23.77;38.30;98188.86;1857231;76;28349;-57
2023/03/13 13:27:43;;;;;;;0.30;0.30;;;;;;;23.77;38.33;98181.17;1836926;76;28302;-55
2023/03/13 13:30:34;;;;;;;1.40;0.42;;;;;;;23.79;38.38;98173.49;1833760;77;28208;-56
2023/03/13 13:33:31;;;;;;;2.40;0.57;;;;;;;23.77;38.36;98176.52;1849220;75;28451;-54